Lafayette Regional Airport
KLFT : now visible

Airfield :











YOU CAN JOIN US ON...

 
LOGIN :

Register | Disclaimer

   EN    FR    IT 

 









Legend :    VFR   Marginal VFR   IFR   Intensive IFR   Very Intensive IFR
Visi :
Ceiling :
>= 8 km
>= 3000ft
5 to 8 km
1000 to 3000 ft
1500m to 5 km
500 to 1000 ft
800 to 1500m
200 to 500 ft
< 800m
< 200 ft
Symbols :   Thunderstorms  Fog  Heavy snow  Heavy precipitations  Wind > 20 kt






- Airport Elevation : 42 ft
- IATA code : LFT


KLFT - Lafayette Regional

CURRENT METAR :
  • 210153Z 20004KT 4SM BR BKN021 15/13 A3022 RMK AO2 SLP233 T01500128

EXPIRED METARs :
  • 210134Z 20004KT 4SM HZ BKN021 16/13 A3022 RMK AO2 T01560128
  • 210114Z 19003KT 5SM HZ SCT028 16/13 A3022 RMK AO2 T01610133
  • 210053Z 22003KT 6SM HZ BKN028 16/13 A3022 RMK AO2 SLP234 T01560128
  • 202353Z 19005KT 10SM HZ CLR 18/14 A3022 RMK AO2 SLP233 T01780139 10211 20178 55001
  • 202321Z 20008KT 10SM HZ SCT024 BKN030 19/14 A3022 RMK AO2 T01890139

TAF KLFT
Valid from the 21 at 01:00 until the 22 at 00:00 UTC


210124Z 2101/2124 19003KT P6SM SCT028
TEMPO 2101/2104 BKN025
FM210900 20005KT 4SM BR OVC015
TEMPO 2110/2113 2SM BR
FM211600 22012G19KT P6SM BKN022
FM212100 22010KT P6SM VCSH OVC015
KZHU FIR / North America



MET'MAP, your aeronautical weather chart ! - Copyright ORBIFLY December 2007 - Disclaimer

ORBIFLY MET'MAP TEAM :

Programming & Development : Alexandra Zaïnal
Concept & original design : Baudouin d'Aumeries
Assistance for programming : Marc-Olivier Méhu
Technical & hardware support : Manuel Goepfert

Contact : metmap@orbifly.com




SOURCES & CREDITS :

   NOAA       Earth
Advisory